Valley Springs, South Dakota
Current Conditions -  °F | °C
As of 8:55 PM on Tuesday 25 Nov 2014 (Local Time) from KLYV Reporting Station
Overcast Overcast  
Wind Chill: 25°   Ceiling: 4800
Heat Index: 34°   Visibility: 10mi
Dew Point: 23°   Wind: 13mph
Humidity: 65%   Direction: 160°SSE
Pressure: 29.85"   Gusts: 17mph
Location:  43.58°N, 96.47°W
Report Text: KLYV 260255Z AUTO 16011G15KT 10SM SCT039 BKN048 OVC060 01/M05 A2985 RMK AO2
Loading
Personal Weather Stations






























Interactive Weather Map New forecast layout! Learn more

10-Day Weather Forecast

Advertisements
Track Severe Weather on mobile